createdAt,value
2022-12-14T00:00:17.819Z,8.70
2022-12-14T00:02:19.362Z,8.38
2022-12-14T00:04:20.906Z,8.38
2022-12-14T00:06:24.419Z,7.03
2022-12-14T00:08:26.381Z,7.55
2022-12-14T00:10:30.010Z,7.93
2022-12-14T00:12:31.484Z,6.72
2022-12-14T00:14:33.051Z,7.32
2022-12-14T00:16:35.777Z,7.28
2022-12-14T00:18:37.359Z,6.45
2022-12-14T00:20:38.907Z,8.65
2022-12-14T00:22:40.376Z,8.60
2022-12-14T00:24:41.881Z,10.40
2022-12-14T00:26:44.745Z,7.97
2022-12-14T00:28:48.319Z,8.93
2022-12-14T00:30:58.338Z,9.10
2022-12-14T00:33:00.100Z,7.22
2022-12-14T00:35:01.624Z,9.65
2022-12-14T00:37:03.176Z,8.30
2022-12-14T00:39:04.856Z,9.45
2022-12-14T00:41:08.015Z,7.22
2022-12-14T00:43:11.132Z,8.43
2022-12-14T00:45:12.607Z,7.03
2022-12-14T00:47:14.108Z,8.93
2022-12-14T00:49:15.597Z,7.80
2022-12-14T00:51:17.324Z,8.32
2022-12-14T00:53:19.163Z,7.07
2022-12-14T00:55:20.703Z,8.25
2022-12-14T00:57:22.175Z,7.45
2022-12-14T00:59:27.363Z,7.13
2022-12-14T01:01:29.282Z,9.20
2022-12-14T01:03:31.539Z,7.60
2022-12-14T01:05:33.851Z,8.55
2022-12-14T01:07:35.425Z,9.02
2022-12-14T01:09:37.218Z,7.40
2022-12-14T01:11:39.438Z,7.75
2022-12-14T01:13:42.128Z,8.00
2022-12-14T01:15:45.111Z,9.43
2022-12-14T01:17:46.654Z,8.93
2022-12-14T01:19:48.943Z,8.18
2022-12-14T01:21:51.004Z,10.65
2022-12-14T01:23:54.403Z,7.40
2022-12-14T01:25:59.015Z,8.35
2022-12-14T01:28:00.621Z,10.18
2022-12-14T01:30:02.264Z,8.00
2022-12-14T01:32:05.700Z,8.50
2022-12-14T01:34:07.420Z,7.70
2022-12-14T01:36:11.074Z,9.93
2022-12-14T01:38:12.565Z,7.43
2022-12-14T01:40:14.062Z,9.60
2022-12-14T01:42:16.337Z,10.48
2022-12-14T01:44:53.707Z,7.53
2022-12-14T01:47:00.681Z,8.75
2022-12-14T01:49:11.771Z,9.23
2022-12-14T01:51:13.358Z,10.25
2022-12-14T01:53:20.591Z,9.10
2022-12-14T01:55:25.415Z,13.75
2022-12-14T01:57:31.550Z,20.02
2022-12-14T01:59:36.486Z,15.80
2022-12-14T02:01:38.613Z,11.45
2022-12-14T02:03:52.414Z,28.33
2022-12-14T02:06:01.082Z,19.58
2022-12-14T02:08:03.279Z,18.58
2022-12-14T02:10:06.982Z,14.93
2022-12-14T02:12:12.811Z,12.55
2022-12-14T02:14:14.278Z,14.32
2022-12-14T02:16:15.952Z,10.13
2022-12-14T02:18:20.806Z,14.00
2022-12-14T02:20:23.059Z,10.52
2022-12-14T02:22:48.955Z,10.43
2022-12-14T02:25:06.732Z,8.63
2022-12-14T02:27:20.824Z,9.05
2022-12-14T02:29:44.367Z,9.07
2022-12-14T02:31:53.918Z,10.60
2022-12-14T02:34:02.897Z,12.68
2022-12-14T02:36:13.219Z,11.55
2022-12-14T02:38:35.506Z,9.10
2022-12-14T02:40:44.822Z,9.23
2022-12-14T02:43:01.323Z,14.00
2022-12-14T02:45:11.479Z,11.82
2022-12-14T02:47:21.541Z,12.75
2022-12-14T02:49:39.763Z,12.35
2022-12-14T02:51:52.675Z,13.05
2022-12-14T02:54:01.256Z,10.10
2022-12-14T02:56:08.326Z,10.32
2022-12-14T02:58:14.967Z,10.25
2022-12-14T03:00:18.720Z,7.88
2022-12-14T03:02:20.752Z,9.45
2022-12-14T03:04:24.072Z,9.82
2022-12-14T03:06:25.947Z,9.52
2022-12-14T03:08:31.458Z,8.07
2022-12-14T03:10:39.119Z,11.48
2022-12-14T03:12:44.881Z,10.02
2022-12-14T03:14:50.365Z,14.60
2022-12-14T03:16:54.032Z,15.70
2022-12-14T03:18:58.886Z,18.13
2022-12-14T03:21:00.989Z,12.70
2022-12-14T03:23:07.429Z,15.60
2022-12-14T03:25:14.741Z,14.20
2022-12-14T03:27:23.534Z,11.07
2022-12-14T03:29:29.449Z,8.43
2022-12-14T03:31:36.543Z,9.30
2022-12-14T03:33:42.826Z,12.05
2022-12-14T03:35:49.972Z,13.50
2022-12-14T03:37:57.438Z,11.60
2022-12-14T03:39:58.963Z,11.90
2022-12-14T03:42:09.006Z,10.85
2022-12-14T03:44:22.823Z,11.68
2022-12-14T03:46:35.625Z,12.60
2022-12-14T03:48:45.039Z,12.15
2022-12-14T03:50:52.995Z,10.38
2022-12-14T03:53:02.305Z,12.75
2022-12-14T03:55:17.483Z,11.82
2022-12-14T03:57:32.634Z,11.52
2022-12-14T03:59:38.659Z,10.80
2022-12-14T04:01:45.942Z,12.02
2022-12-14T04:03:57.795Z,11.70
2022-12-14T04:06:03.671Z,12.40
2022-12-14T04:08:10.819Z,9.55
2022-12-14T04:10:14.997Z,10.30
2022-12-14T04:12:23.174Z,10.13
2022-12-14T04:14:30.498Z,8.70
2022-12-14T04:16:38.012Z,9.85
2022-12-14T04:18:42.664Z,12.10
2022-12-14T04:20:50.049Z,10.00
2022-12-14T04:22:56.433Z,12.45
2022-12-14T04:25:01.942Z,11.80
2022-12-14T04:27:09.768Z,11.35
2022-12-14T04:29:16.585Z,12.07
2022-12-14T04:31:22.688Z,11.45
2022-12-14T04:33:25.220Z,13.07
2022-12-14T04:35:33.947Z,14.98
2022-12-14T04:37:39.965Z,13.40
2022-12-14T04:39:47.171Z,14.55
2022-12-14T04:41:53.298Z,19.08
2022-12-14T04:43:57.290Z,13.15
2022-12-14T04:46:05.561Z,12.70
2022-12-14T04:48:12.913Z,15.10
2022-12-14T04:50:22.434Z,15.98
2022-12-14T04:52:29.613Z,14.20
2022-12-14T04:54:43.720Z,14.18
2022-12-14T04:56:51.146Z,12.75
2022-12-14T04:58:53.842Z,16.33
2022-12-14T05:01:15.201Z,13.98
2022-12-14T05:03:23.819Z,15.98
2022-12-14T05:05:29.198Z,18.70
2022-12-14T05:07:40.253Z,14.07
2022-12-14T05:09:54.499Z,14.95
2022-12-14T05:12:05.083Z,13.15
2022-12-14T05:14:11.877Z,15.32
2022-12-14T05:16:17.276Z,14.98
2022-12-14T05:18:19.334Z,15.98
2022-12-14T05:20:23.416Z,13.98
2022-12-14T05:22:24.898Z,16.67
2022-12-14T05:24:26.419Z,13.18
2022-12-14T05:26:30.485Z,12.25
2022-12-14T05:28:31.980Z,15.05
2022-12-14T05:30:34.454Z,19.42
2022-12-14T05:32:36.098Z,16.55
2022-12-14T05:34:37.575Z,15.82
2022-12-14T05:36:39.013Z,15.35
2022-12-14T05:38:40.500Z,13.95
2022-12-14T05:40:42.008Z,15.90
2022-12-14T05:42:47.711Z,16.67
2022-12-14T05:44:52.498Z,18.25
2022-12-14T05:46:54.004Z,17.48
2022-12-14T05:48:55.508Z,22.95
2022-12-14T05:51:04.524Z,18.25
2022-12-14T05:53:06.190Z,19.13
2022-12-14T05:55:08.976Z,16.67
2022-12-14T05:57:10.647Z,17.60
2022-12-14T05:59:13.482Z,16.77
2022-12-14T06:01:18.989Z,19.15
2022-12-14T06:03:21.268Z,15.57
2022-12-14T06:05:22.775Z,19.55
2022-12-14T06:07:27.665Z,19.52
2022-12-14T06:09:29.967Z,18.80
2022-12-14T06:11:31.399Z,20.70
2022-12-14T06:13:32.894Z,19.83
2022-12-14T06:15:35.719Z,18.45
2022-12-14T06:17:44.981Z,21.05
2022-12-14T06:19:49.557Z,21.90
2022-12-14T06:21:51.903Z,21.90
2022-12-14T06:23:54.294Z,21.65
2022-12-14T06:25:56.509Z,20.00
2022-12-14T06:27:57.997Z,22.83
2022-12-14T06:29:59.487Z,24.55
2022-12-14T06:32:02.629Z,22.75
2022-12-14T06:34:05.585Z,18.13
2022-12-14T06:36:07.539Z,21.38
2022-12-14T06:38:09.025Z,21.27
2022-12-14T06:40:11.450Z,19.05
2022-12-14T06:42:12.985Z,19.60
2022-12-14T06:44:14.509Z,22.10
2022-12-14T06:46:18.400Z,18.52
2022-12-14T06:48:21.626Z,20.58
2022-12-14T06:50:23.095Z,19.67
2022-12-14T06:52:26.915Z,20.25
2022-12-14T06:54:29.067Z,18.92
2022-12-14T06:56:30.732Z,18.38
2022-12-14T06:58:32.716Z,21.80
2022-12-14T07:00:34.174Z,20.45
2022-12-14T07:02:36.032Z,27.63
2022-12-14T07:04:41.256Z,20.10
2022-12-14T07:06:42.721Z,18.48
2022-12-14T07:08:45.034Z,27.08
2022-12-14T07:10:46.489Z,26.67
2022-12-14T07:12:47.943Z,23.92
2022-12-14T07:14:49.403Z,20.08
2022-12-14T07:16:50.872Z,22.23
2022-12-14T07:18:54.129Z,22.13
2022-12-14T07:20:58.096Z,23.98
2022-12-14T07:22:59.707Z,20.02
2022-12-14T07:25:01.333Z,25.13
2022-12-14T07:27:02.851Z,34.33
2022-12-14T07:29:04.346Z,28.73
2022-12-14T07:31:07.529Z,28.48
2022-12-14T07:33:09.103Z,26.20
2022-12-14T07:35:16.401Z,26.30
2022-12-14T07:37:19.692Z,37.35
2022-12-14T07:39:22.173Z,27.17
2022-12-14T07:41:25.782Z,40.58
2022-12-14T07:43:27.636Z,25.02
2022-12-14T07:45:30.227Z,32.58
2022-12-14T07:47:31.699Z,29.30
2022-12-14T07:49:33.187Z,20.80
2022-12-14T07:51:37.100Z,21.40
2022-12-14T07:53:40.410Z,23.95
2022-12-14T07:55:41.847Z,21.80
2022-12-14T07:57:43.512Z,21.27
2022-12-14T07:59:45.005Z,20.73
2022-12-14T08:01:46.631Z,24.05
2022-12-14T08:03:50.775Z,21.63
2022-12-14T08:05:52.261Z,23.15
2022-12-14T08:07:53.703Z,19.75
2022-12-14T08:09:56.581Z,24.42
2022-12-14T08:11:58.094Z,27.90
2022-12-14T08:14:01.010Z,21.52
2022-12-14T08:16:03.692Z,21.42
2022-12-14T08:18:05.369Z,23.88
2022-12-14T08:20:07.668Z,20.15
2022-12-14T08:22:09.196Z,26.73
2022-12-14T08:24:11.559Z,23.30
2022-12-14T08:26:14.438Z,21.42
2022-12-14T08:28:16.007Z,22.88
2022-12-14T08:30:17.692Z,25.85
2022-12-14T08:32:19.208Z,24.58
2022-12-14T08:34:20.737Z,20.60
2022-12-14T08:36:23.760Z,19.98
2022-12-14T08:38:25.495Z,22.00
2022-12-14T08:40:27.128Z,22.67
2022-12-14T08:42:29.969Z,20.88
2022-12-14T08:44:31.482Z,24.00
2022-12-14T08:46:35.138Z,20.08
2022-12-14T08:48:36.745Z,23.20
2022-12-14T08:50:38.350Z,22.80
2022-12-14T08:52:39.939Z,23.55
2022-12-14T08:54:41.456Z,27.45
2022-12-14T08:56:43.022Z,20.50
2022-12-14T08:58:46.203Z,22.70
2022-12-14T09:00:47.764Z,22.05
2022-12-14T09:02:50.264Z,22.67
2022-12-14T09:04:51.938Z,25.73
2022-12-14T09:06:53.417Z,24.90
2022-12-14T09:08:55.564Z,25.63
2022-12-14T09:10:57.346Z,26.30
2022-12-14T09:12:58.960Z,29.13
2022-12-14T09:15:01.912Z,45.63
2022-12-14T09:17:03.861Z,35.60
2022-12-14T09:19:05.376Z,26.08
2022-12-14T09:21:07.501Z,30.65
2022-12-14T09:23:09.008Z,39.92
2022-12-14T09:25:10.521Z,31.02
2022-12-14T09:27:12.051Z,27.90
2022-12-14T09:29:14.913Z,27.83
2022-12-14T09:31:20.587Z,30.52
2022-12-14T09:33:22.143Z,41.47
2022-12-14T09:35:23.647Z,38.22
2022-12-14T09:37:25.198Z,31.25
2022-12-14T09:39:26.821Z,31.08
2022-12-14T09:41:44.520Z,29.48
2022-12-14T09:43:53.342Z,28.05
2022-12-14T09:46:01.456Z,28.90
2022-12-14T09:48:12.478Z,24.52
2022-12-14T09:50:17.098Z,26.55
2022-12-14T09:52:25.908Z,33.90
2022-12-14T09:54:29.876Z,31.30
2022-12-14T09:56:32.665Z,30.73
2022-12-14T09:58:35.350Z,32.58
2022-12-14T10:00:40.350Z,47.45
2022-12-14T10:02:53.264Z,38.55
2022-12-14T10:05:09.511Z,39.88
2022-12-14T10:40:35.331Z,25.02
2022-12-14T10:42:49.484Z,31.27
2022-12-14T10:45:39.602Z,30.40
2022-12-14T10:47:29.599Z,28.38
2022-12-14T10:49:37.715Z,31.30
2022-12-14T10:51:43.676Z,26.20
2022-12-14T10:53:51.573Z,25.73
2022-12-14T10:56:00.447Z,23.42
2022-12-14T10:58:03.381Z,27.73
2022-12-14T11:00:18.479Z,24.88
2022-12-14T11:02:27.495Z,25.92
2022-12-14T11:04:33.038Z,33.67
2022-12-14T11:06:34.648Z,26.23
2022-12-14T11:08:42.980Z,32.72
2022-12-14T11:11:06.772Z,27.70
2022-12-14T11:13:17.229Z,24.05
2022-12-14T11:15:25.842Z,22.95
2022-12-14T11:17:36.647Z,25.65
2022-12-14T11:19:38.323Z,23.50
2022-12-14T11:21:39.929Z,28.30
2022-12-14T11:23:43.075Z,26.55
2022-12-14T11:25:47.278Z,27.08
2022-12-14T11:27:50.216Z,24.70
2022-12-14T11:29:51.889Z,23.60
2022-12-14T11:31:53.510Z,24.05
2022-12-14T11:33:56.931Z,27.50
2022-12-14T11:35:59.048Z,23.50
2022-12-14T11:38:00.811Z,26.52
2022-12-14T11:40:05.454Z,24.38
2022-12-14T11:42:16.050Z,27.15
2022-12-14T11:44:26.914Z,28.70
2022-12-14T11:46:44.709Z,23.10
2022-12-14T11:48:48.837Z,27.35
2022-12-14T11:50:53.170Z,23.88
2022-12-14T11:53:10.772Z,29.02
2022-12-14T11:55:14.776Z,24.63
2022-12-14T11:57:22.428Z,24.58
2022-12-14T11:59:29.864Z,31.55
2022-12-14T12:01:31.442Z,26.55
2022-12-14T12:03:37.173Z,22.98
2022-12-14T12:05:42.598Z,26.45
2022-12-14T12:07:52.449Z,29.15
2022-12-14T12:09:54.476Z,31.40
2022-12-14T12:11:56.993Z,25.17
2022-12-14T12:14:00.642Z,25.63
2022-12-14T12:16:06.398Z,36.47
2022-12-14T12:18:15.911Z,42.58
2022-12-14T12:20:32.721Z,47.58
2022-12-14T12:22:35.394Z,35.03
2022-12-14T12:25:08.354Z,30.63
2022-12-14T12:27:08.067Z,56.30
2022-12-14T12:29:16.403Z,30.85
2022-12-14T12:31:23.774Z,34.28
2022-12-14T12:33:32.172Z,25.08
2022-12-14T12:35:43.081Z,27.83
2022-12-14T12:37:48.792Z,25.73
2022-12-14T12:39:58.979Z,24.70
2022-12-14T12:42:06.615Z,25.92
2022-12-14T12:44:27.643Z,26.67
2022-12-14T12:46:35.936Z,28.08
2022-12-14T12:48:50.378Z,31.70
2022-12-14T12:50:55.570Z,26.88
2022-12-14T12:53:03.687Z,24.60
2022-12-14T12:55:14.208Z,26.15
2022-12-14T12:57:19.128Z,23.98
2022-12-14T12:59:26.750Z,25.20
2022-12-14T13:01:34.354Z,25.52
2022-12-14T13:03:39.200Z,22.92
2022-12-14T13:05:47.077Z,22.55
2022-12-14T13:07:52.855Z,24.52
2022-12-14T13:10:03.623Z,27.80
2022-12-14T13:12:14.724Z,26.33
2022-12-14T13:14:23.907Z,25.98
2022-12-14T13:16:30.908Z,25.88
2022-12-14T13:21:07.720Z,28.33
2022-12-14T13:23:36.461Z,27.25
2022-12-14T13:25:45.039Z,29.60
2022-12-14T13:28:08.711Z,23.00
2022-12-14T13:30:30.180Z,25.00
2022-12-14T13:32:47.000Z,28.90
2022-12-14T13:35:00.457Z,29.50
2022-12-14T13:37:27.130Z,32.33
2022-12-14T13:39:51.604Z,27.50
2022-12-14T13:42:01.052Z,25.92
2022-12-14T13:44:36.096Z,28.45
2022-12-14T13:46:42.159Z,34.20
2022-12-14T13:48:49.127Z,30.90
2022-12-14T13:51:01.930Z,67.70
2022-12-14T13:53:11.317Z,79.45
2022-12-14T13:55:26.879Z,45.35
2022-12-14T13:57:28.984Z,30.77
2022-12-14T13:59:34.181Z,55.80
2022-12-14T14:01:54.707Z,41.38
2022-12-14T14:04:16.670Z,61.13
2022-12-14T14:06:30.435Z,34.85
2022-12-14T14:08:39.332Z,73.50
2022-12-14T14:10:43.200Z,33.97
2022-12-14T14:12:44.808Z,29.77
2022-12-14T14:14:52.367Z,33.10
2022-12-14T14:16:57.588Z,28.45
2022-12-14T14:19:03.888Z,28.48
2022-12-14T14:21:31.049Z,29.02
2022-12-14T14:23:36.586Z,25.70
2022-12-14T14:25:40.091Z,24.67
2022-12-14T14:27:50.250Z,26.13
2022-12-14T14:29:53.004Z,23.80
2022-12-14T14:31:58.417Z,26.10
2022-12-14T14:34:00.572Z,23.92
2022-12-14T14:36:09.368Z,27.48
2022-12-14T14:38:25.629Z,25.90
2022-12-14T14:40:51.450Z,26.30
2022-12-14T14:42:59.239Z,24.63
2022-12-14T14:45:04.426Z,39.65
2022-12-14T14:47:15.568Z,37.72
2022-12-14T14:49:24.268Z,25.45
2022-12-14T14:51:28.077Z,36.47
2022-12-14T14:53:33.203Z,26.23
2022-12-14T14:56:00.296Z,28.77
2022-12-14T14:58:05.476Z,31.25
2022-12-14T15:00:11.512Z,31.70
2022-12-14T15:02:40.711Z,30.52
2022-12-14T15:04:46.085Z,23.73
2022-12-14T15:06:51.328Z,25.13
2022-12-14T15:08:58.467Z,45.15
2022-12-14T15:11:03.545Z,33.22
2022-12-14T15:13:08.656Z,24.02
2022-12-14T15:15:18.131Z,40.95
2022-12-14T15:17:22.225Z,26.73
2022-12-14T15:19:29.415Z,25.10
2022-12-14T15:21:32.369Z,26.42
2022-12-14T15:23:36.987Z,27.85
2022-12-14T15:25:40.934Z,25.70
2022-12-14T15:27:49.984Z,27.17
2022-12-14T15:29:52.494Z,23.35
2022-12-14T15:31:59.501Z,22.27
2022-12-14T15:34:03.054Z,27.48
2022-12-14T15:36:08.154Z,28.83
2022-12-14T15:38:25.516Z,29.45
2022-12-14T15:40:28.524Z,31.77
2022-12-14T15:42:31.525Z,31.85
2022-12-14T15:44:33.337Z,46.35
2022-12-14T15:46:36.114Z,87.50
2022-12-14T15:48:37.885Z,56.45
2022-12-14T15:50:43.918Z,47.70
2022-12-14T15:52:46.872Z,42.00
2022-12-14T15:54:48.381Z,38.10
2022-12-14T15:56:53.420Z,39.50
2022-12-14T15:58:58.811Z,29.60
2022-12-14T16:01:09.107Z,22.55
2022-12-14T16:03:19.374Z,19.75
2022-12-14T16:05:22.400Z,24.48
2022-12-14T16:07:30.137Z,21.35
2022-12-14T16:09:35.387Z,23.33
2022-12-14T16:11:41.826Z,23.98
2022-12-14T16:13:47.871Z,22.95
2022-12-14T16:15:52.059Z,29.40
2022-12-14T16:18:01.662Z,27.20
2022-12-14T16:20:19.116Z,23.52
2022-12-14T16:22:23.102Z,25.73
2022-12-14T16:24:25.415Z,22.70
2022-12-14T16:26:31.879Z,33.03
2022-12-14T16:28:35.575Z,42.35
2022-12-14T16:30:37.420Z,31.35
2022-12-14T16:32:40.308Z,29.50
2022-12-14T16:34:47.895Z,53.63
2022-12-14T16:37:08.461Z,33.22
2022-12-14T16:39:17.089Z,27.85
2022-12-14T16:41:18.812Z,26.30
2022-12-14T16:43:32.949Z,24.90
2022-12-14T16:46:07.486Z,23.05
2022-12-14T16:48:15.584Z,34.45
2022-12-14T16:50:47.599Z,31.65
2022-12-14T16:52:45.070Z,33.83
2022-12-14T16:55:07.286Z,22.60
2022-12-14T16:57:19.680Z,27.88
2022-12-14T16:59:23.315Z,26.65
2022-12-14T17:01:25.949Z,22.30
2022-12-14T17:03:30.354Z,24.30
2022-12-14T17:05:35.844Z,24.40
2022-12-14T17:07:37.605Z,27.58
2022-12-14T17:09:39.152Z,20.75
2022-12-14T17:11:40.700Z,25.38
2022-12-14T17:13:42.226Z,23.67
2022-12-14T17:15:56.871Z,25.33
2022-12-14T17:18:01.341Z,28.20
2022-12-14T17:20:10.499Z,25.85
2022-12-14T17:22:19.677Z,25.27
2022-12-14T17:24:22.099Z,25.30
2022-12-14T17:26:26.011Z,28.92
2022-12-14T17:28:29.941Z,43.78
2022-12-14T17:30:31.447Z,24.35
2022-12-14T17:32:34.434Z,26.70
2022-12-14T17:34:35.918Z,37.10
2022-12-14T17:36:38.896Z,22.85
2022-12-14T17:38:40.716Z,36.40
2022-12-14T17:40:43.885Z,24.55
2022-12-14T17:42:51.271Z,28.00
2022-12-14T17:44:56.435Z,24.52
2022-12-14T17:46:58.044Z,21.02
2022-12-14T17:49:06.008Z,24.10
2022-12-14T17:51:14.781Z,29.70
2022-12-14T17:53:24.541Z,27.90
2022-12-14T17:55:28.226Z,19.27
2022-12-14T17:57:29.733Z,20.05
2022-12-14T17:59:31.407Z,24.92
2022-12-14T18:01:33.109Z,21.98
2022-12-14T18:03:35.471Z,21.35
2022-12-14T18:05:42.145Z,23.48
2022-12-14T18:07:46.763Z,23.98
2022-12-14T18:09:52.920Z,24.35
2022-12-14T18:12:22.262Z,23.02
2022-12-14T18:14:15.964Z,22.45
2022-12-14T18:16:19.779Z,23.45
2022-12-14T18:18:23.077Z,27.52
2022-12-14T18:20:24.850Z,36.78
2022-12-14T18:22:26.391Z,30.52
2022-12-14T18:24:27.908Z,25.70
2022-12-14T18:26:30.832Z,23.77
2022-12-14T18:28:32.507Z,20.23
2022-12-14T18:30:41.788Z,22.25
2022-12-14T18:32:44.890Z,22.02
2022-12-14T18:34:46.374Z,25.35
2022-12-14T18:36:47.840Z,25.77
2022-12-14T18:38:49.823Z,26.75
2022-12-14T18:40:53.976Z,25.27
2022-12-14T18:42:57.434Z,30.40
2022-12-14T18:44:58.949Z,41.42
2022-12-14T18:47:20.336Z,33.72
2022-12-14T18:49:21.968Z,41.50
2022-12-14T18:51:24.144Z,33.85
2022-12-14T18:53:26.137Z,26.25
2022-12-14T18:55:30.384Z,24.92
2022-12-14T18:57:32.021Z,23.50
2022-12-14T18:59:40.622Z,20.17
2022-12-14T19:01:43.865Z,19.25
2022-12-14T19:03:45.771Z,22.70
2022-12-14T19:05:47.682Z,21.48
2022-12-14T19:07:49.725Z,23.48
2022-12-14T19:09:51.416Z,20.55
2022-12-14T19:11:52.939Z,20.42
2022-12-14T19:13:54.448Z,20.70
2022-12-14T19:15:57.287Z,19.20
2022-12-14T19:17:59.130Z,29.77
2022-12-14T19:20:00.679Z,24.83
2022-12-14T19:22:02.211Z,22.95
2022-12-14T19:24:04.106Z,22.92
2022-12-14T19:26:05.829Z,21.73
2022-12-14T19:30:28.872Z,19.60
2022-12-14T19:32:31.850Z,23.40
2022-12-14T19:34:33.527Z,22.05
2022-12-14T19:36:35.168Z,24.15
2022-12-14T19:38:37.294Z,28.27
2022-12-14T19:40:39.015Z,25.90
2022-12-14T19:42:40.715Z,24.90
2022-12-14T19:44:42.479Z,29.35
2022-12-14T19:46:44.029Z,26.30
2022-12-14T19:48:46.977Z,26.48
2022-12-14T19:50:49.366Z,27.85
2022-12-14T19:52:51.478Z,24.55
2022-12-14T19:54:53.051Z,29.45
2022-12-14T19:56:54.604Z,32.33
2022-12-14T19:58:58.818Z,29.98
2022-12-14T20:01:00.350Z,34.33
2022-12-14T20:03:02.068Z,31.45
2022-12-14T20:05:06.244Z,28.35
2022-12-14T20:07:08.941Z,26.50
2022-12-14T20:09:14.179Z,26.90
2022-12-14T20:11:15.695Z,28.65
2022-12-14T20:13:17.239Z,28.17
2022-12-14T20:15:18.786Z,26.95
2022-12-14T20:17:20.291Z,29.45
2022-12-14T20:19:22.015Z,28.30
2022-12-14T20:21:24.960Z,27.70
2022-12-14T20:23:26.498Z,29.95
2022-12-14T20:25:28.020Z,29.80
2022-12-14T20:27:29.552Z,28.92
2022-12-14T20:29:30.998Z,26.00
2022-12-14T20:31:33.079Z,26.90
2022-12-14T20:33:35.356Z,27.45
2022-12-14T20:35:37.135Z,23.30
2022-12-14T20:37:40.000Z,23.20
2022-12-14T20:39:41.465Z,24.10
2022-12-14T20:41:43.014Z,27.40
2022-12-14T20:43:45.211Z,26.10
2022-12-14T20:45:46.716Z,34.10
2022-12-14T20:47:51.792Z,28.33
2022-12-14T20:49:53.314Z,25.65
2022-12-14T20:51:54.956Z,22.75
2022-12-14T20:53:58.405Z,27.55
2022-12-14T20:56:03.227Z,23.60
2022-12-14T20:58:04.869Z,26.75
2022-12-14T21:00:07.599Z,22.67
2022-12-14T21:02:16.089Z,29.30
2022-12-14T21:04:17.617Z,29.23
2022-12-14T21:06:21.446Z,31.17
2022-12-14T21:08:23.044Z,36.83
2022-12-14T21:10:26.021Z,27.27
2022-12-14T21:12:27.550Z,29.15
2022-12-14T21:14:31.139Z,26.65
2022-12-14T21:16:32.768Z,30.73
2022-12-14T21:18:34.259Z,26.83
2022-12-14T21:20:36.454Z,31.75
2022-12-14T21:22:37.963Z,25.98
2022-12-14T21:27:02.544Z,23.20
2022-12-14T21:29:04.680Z,28.55
2022-12-14T21:31:07.846Z,23.50
2022-12-14T21:33:09.467Z,23.00
2022-12-14T21:35:11.033Z,26.95
2022-12-14T21:37:12.821Z,25.38
2022-12-14T21:39:16.002Z,20.23
2022-12-14T21:41:17.404Z,24.25
2022-12-14T21:43:20.296Z,24.20
2022-12-14T21:45:21.790Z,27.10
2022-12-14T21:47:25.775Z,25.25
2022-12-14T21:49:27.298Z,23.75
2022-12-14T21:51:28.826Z,24.15
2022-12-14T21:53:35.002Z,25.67
2022-12-14T21:55:36.946Z,22.02
2022-12-14T21:57:38.507Z,22.55
2022-12-14T21:59:42.722Z,22.02
2022-12-14T22:01:44.802Z,26.08
2022-12-14T22:03:46.496Z,25.33
2022-12-14T22:05:51.019Z,25.33
2022-12-14T22:07:52.491Z,23.52
2022-12-14T22:09:53.999Z,27.98
2022-12-14T22:11:55.474Z,26.88
2022-12-14T22:13:56.929Z,23.77
2022-12-14T22:16:04.500Z,23.40
2022-12-14T22:18:06.279Z,21.77
2022-12-14T22:20:08.823Z,20.08
2022-12-14T22:22:13.706Z,25.77
2022-12-14T22:24:15.798Z,27.63
2022-12-14T22:26:17.496Z,25.80
2022-12-14T22:28:18.994Z,25.33
2022-12-14T22:30:20.466Z,28.88
2022-12-14T22:32:23.308Z,27.45
2022-12-14T22:34:24.798Z,21.23
2022-12-14T22:36:26.299Z,24.98
2022-12-14T22:38:31.731Z,26.05
2022-12-14T22:40:34.201Z,27.77
2022-12-14T22:42:35.750Z,28.10
2022-12-14T22:44:37.303Z,27.17
2022-12-14T22:46:39.476Z,28.98
2022-12-14T22:48:42.302Z,25.90
2022-12-14T22:50:44.008Z,28.35
2022-12-14T22:52:49.862Z,27.25
2022-12-14T22:54:51.835Z,25.63
2022-12-14T22:56:57.779Z,29.35
2022-12-14T22:59:04.847Z,31.20
2022-12-14T23:01:07.086Z,22.65
2022-12-14T23:03:09.723Z,27.27
2022-12-14T23:05:13.130Z,28.38
2022-12-14T23:07:15.011Z,25.27
2022-12-14T23:09:16.599Z,27.40
2022-12-14T23:11:18.124Z,26.70
2022-12-14T23:13:19.620Z,26.25
2022-12-14T23:15:21.097Z,26.98
2022-12-14T23:17:22.922Z,31.10
2022-12-14T23:19:24.412Z,28.05
2022-12-14T23:21:27.225Z,29.00
2022-12-14T23:23:29.265Z,25.13
2022-12-14T23:25:33.243Z,24.35
2022-12-14T23:27:34.715Z,26.80
2022-12-14T23:29:36.310Z,27.77
2022-12-14T23:31:37.806Z,23.05
2022-12-14T23:33:39.291Z,30.83
2022-12-14T23:35:40.776Z,28.65
2022-12-14T23:37:43.604Z,29.50
2022-12-14T23:39:45.147Z,28.50
2022-12-14T23:41:46.639Z,30.02
2022-12-14T23:43:48.136Z,28.73
2022-12-14T23:45:49.710Z,29.10
2022-12-14T23:47:51.229Z,28.10
2022-12-14T23:49:54.477Z,28.92
2022-12-14T23:51:55.963Z,25.88
2022-12-14T23:53:58.912Z,24.50
2022-12-14T23:56:00.470Z,31.15
2022-12-14T23:58:01.960Z,24.02
